sensor_id;sensor_type;location;lat;lon;timestamp;temperature;humidity
28654;DHT22;24320;56.980;24.336;2022-09-16T00:00:46;9.70;99.90
28654;DHT22;24320;56.980;24.336;2022-09-16T00:03:14;9.80;99.90
28654;DHT22;24320;56.980;24.336;2022-09-16T00:05:48;9.80;99.90
28654;DHT22;24320;56.980;24.336;2022-09-16T00:08:16;9.90;99.90
28654;DHT22;24320;56.980;24.336;2022-09-16T00:10:44;9.90;99.90
28654;DHT22;24320;56.980;24.336;2022-09-16T00:13:12;10.00;99.90
28654;DHT22;24320;56.980;24.336;2022-09-16T00:15:44;9.90;99.90
28654;DHT22;24320;56.980;24.336;2022-09-16T00:18:11;9.90;99.90
28654;DHT22;24320;56.980;24.336;2022-09-16T00:23:27;9.70;99.90
28654;DHT22;24320;56.980;24.336;2022-09-16T00:25:55;9.70;99.90
28654;DHT22;24320;56.980;24.336;2022-09-16T00:28:22;9.60;99.90
28654;DHT22;24320;56.980;24.336;2022-09-16T00:30:49;9.60;99.90
28654;DHT22;24320;56.980;24.336;2022-09-16T00:33:18;9.60;99.90
28654;DHT22;24320;56.980;24.336;2022-09-16T00:35:45;9.60;99.90
28654;DHT22;24320;56.980;24.336;2022-09-16T00:38:12;9.50;99.90
28654;DHT22;24320;56.980;24.336;2022-09-16T00:40:47;9.50;99.90
28654;DHT22;24320;56.980;24.336;2022-09-16T00:43:18;9.40;99.90
28654;DHT22;24320;56.980;24.336;2022-09-16T00:45:53;9.30;99.90
28654;DHT22;24320;56.980;24.336;2022-09-16T00:48:23;9.20;99.90
28654;DHT22;24320;56.980;24.336;2022-09-16T00:50:58;9.20;99.90
28654;DHT22;24320;56.980;24.336;2022-09-16T00:53:30;9.20;99.90
28654;DHT22;24320;56.980;24.336;2022-09-16T00:55:59;9.10;99.90
28654;DHT22;24320;56.980;24.336;2022-09-16T01:01:04;9.00;99.90
28654;DHT22;24320;56.980;24.336;2022-09-16T01:03:39;9.00;99.90
28654;DHT22;24320;56.980;24.336;2022-09-16T01:06:09;9.00;99.90
28654;DHT22;24320;56.980;24.336;2022-09-16T01:08:37;9.00;99.90
28654;DHT22;24320;56.980;24.336;2022-09-16T01:11:04;9.10;99.90
28654;DHT22;24320;56.980;24.336;2022-09-16T01:13:31;9.20;99.90
28654;DHT22;24320;56.980;24.336;2022-09-16T01:16:05;9.20;99.90
28654;DHT22;24320;56.980;24.336;2022-09-16T01:18:46;9.30;99.90
28654;DHT22;24320;56.980;24.336;2022-09-16T01:27:20;9.50;99.90
28654;DHT22;24320;56.980;24.336;2022-09-16T01:41:45;9.60;99.90
28654;DHT22;24320;56.980;24.336;2022-09-16T01:58:09;9.40;99.90
28654;DHT22;24320;56.980;24.336;2022-09-16T02:00:43;9.40;99.90
28654;DHT22;24320;56.980;24.336;2022-09-16T02:03:18;9.30;99.90
28654;DHT22;24320;56.980;24.336;2022-09-16T02:05:51;9.20;99.90
28654;DHT22;24320;56.980;24.336;2022-09-16T02:08:50;9.20;99.90
28654;DHT22;24320;56.980;24.336;2022-09-16T02:11:19;9.20;99.90
28654;DHT22;24320;56.980;24.336;2022-09-16T02:14:09;9.20;99.90
28654;DHT22;24320;56.980;24.336;2022-09-16T02:17:16;9.20;99.90
28654;DHT22;24320;56.980;24.336;2022-09-16T02:20:00;9.30;99.90
28654;DHT22;24320;56.980;24.336;2022-09-16T02:22:40;9.30;99.90
28654;DHT22;24320;56.980;24.336;2022-09-16T02:25:10;9.40;99.90
28654;DHT22;24320;56.980;24.336;2022-09-16T02:27:39;9.50;99.90
28654;DHT22;24320;56.980;24.336;2022-09-16T02:30:10;9.50;99.90
28654;DHT22;24320;56.980;24.336;2022-09-16T02:32:45;9.60;99.90
28654;DHT22;24320;56.980;24.336;2022-09-16T02:35:15;9.60;99.90
28654;DHT22;24320;56.980;24.336;2022-09-16T02:37:54;9.60;99.90
28654;DHT22;24320;56.980;24.336;2022-09-16T02:40:33;9.60;99.90
28654;DHT22;24320;56.980;24.336;2022-09-16T02:43:01;9.70;99.90
28654;DHT22;24320;56.980;24.336;2022-09-16T02:49:08;9.70;99.90
28654;DHT22;24320;56.980;24.336;2022-09-16T02:51:34;9.60;99.90
28654;DHT22;24320;56.980;24.336;2022-09-16T02:54:06;9.70;99.90
28654;DHT22;24320;56.980;24.336;2022-09-16T02:56:38;9.60;99.90
28654;DHT22;24320;56.980;24.336;2022-09-16T02:59:07;9.60;99.90
28654;DHT22;24320;56.980;24.336;2022-09-16T03:01:41;9.60;99.90
28654;DHT22;24320;56.980;24.336;2022-09-16T03:04:10;9.70;99.90
28654;DHT22;24320;56.980;24.336;2022-09-16T03:06:38;9.70;99.90
28654;DHT22;24320;56.980;24.336;2022-09-16T03:09:07;9.70;99.90
28654;DHT22;24320;56.980;24.336;2022-09-16T03:22:50;9.60;99.90
28654;DHT22;24320;56.980;24.336;2022-09-16T03:25:47;9.50;99.90
28654;DHT22;24320;56.980;24.336;2022-09-16T03:28:21;9.50;99.90
28654;DHT22;24320;56.980;24.336;2022-09-16T03:30:58;9.50;99.90
28654;DHT22;24320;56.980;24.336;2022-09-16T03:33:50;9.50;99.90
28654;DHT22;24320;56.980;24.336;2022-09-16T03:36:24;9.40;99.90
28654;DHT22;24320;56.980;24.336;2022-09-16T03:38:52;9.40;99.90
28654;DHT22;24320;56.980;24.336;2022-09-16T03:41:21;9.40;99.90
28654;DHT22;24320;56.980;24.336;2022-09-16T03:43:52;9.40;99.90
28654;DHT22;24320;56.980;24.336;2022-09-16T03:46:19;9.40;99.90
28654;DHT22;24320;56.980;24.336;2022-09-16T03:48:46;9.50;99.90
28654;DHT22;24320;56.980;24.336;2022-09-16T03:51:14;9.50;99.90
28654;DHT22;24320;56.980;24.336;2022-09-16T03:53:41;9.50;99.90
28654;DHT22;24320;56.980;24.336;2022-09-16T03:56:08;9.50;99.90
28654;DHT22;24320;56.980;24.336;2022-09-16T03:58:35;9.50;99.90
28654;DHT22;24320;56.980;24.336;2022-09-16T04:01:02;9.60;99.90
28654;DHT22;24320;56.980;24.336;2022-09-16T04:03:29;9.60;99.90
28654;DHT22;24320;56.980;24.336;2022-09-16T04:05:59;9.60;99.90
28654;DHT22;24320;56.980;24.336;2022-09-16T04:08:26;9.60;99.90
28654;DHT22;24320;56.980;24.336;2022-09-16T04:10:57;9.60;99.90
28654;DHT22;24320;56.980;24.336;2022-09-16T04:13:27;9.60;99.90
28654;DHT22;24320;56.980;24.336;2022-09-16T04:15:54;9.60;99.90
28654;DHT22;24320;56.980;24.336;2022-09-16T04:18:22;9.50;99.90
28654;DHT22;24320;56.980;24.336;2022-09-16T04:20:49;9.50;99.90
28654;DHT22;24320;56.980;24.336;2022-09-16T04:23:16;9.50;99.90
28654;DHT22;24320;56.980;24.336;2022-09-16T04:25:43;9.50;99.90
28654;DHT22;24320;56.980;24.336;2022-09-16T04:28:10;9.50;99.90
28654;DHT22;24320;56.980;24.336;2022-09-16T04:30:37;9.60;99.90
28654;DHT22;24320;56.980;24.336;2022-09-16T04:33:04;9.60;99.90
28654;DHT22;24320;56.980;24.336;2022-09-16T04:35:31;9.60;99.90
28654;DHT22;24320;56.980;24.336;2022-09-16T04:37:58;9.70;99.90
28654;DHT22;24320;56.980;24.336;2022-09-16T04:40:25;9.70;99.90
28654;DHT22;24320;56.980;24.336;2022-09-16T04:42:52;9.70;99.90
28654;DHT22;24320;56.980;24.336;2022-09-16T04:45:19;9.70;99.90
28654;DHT22;24320;56.980;24.336;2022-09-16T04:47:47;9.70;99.90
28654;DHT22;24320;56.980;24.336;2022-09-16T04:50:14;9.80;99.90
28654;DHT22;24320;56.980;24.336;2022-09-16T04:52:41;9.80;99.90
28654;DHT22;24320;56.980;24.336;2022-09-16T04:55:08;9.80;99.90
28654;DHT22;24320;56.980;24.336;2022-09-16T04:57:35;9.90;99.90
28654;DHT22;24320;56.980;24.336;2022-09-16T05:00:02;9.90;99.90
28654;DHT22;24320;56.980;24.336;2022-09-16T05:02:29;10.00;99.90
28654;DHT22;24320;56.980;24.336;2022-09-16T05:04:56;10.10;99.90
28654;DHT22;24320;56.980;24.336;2022-09-16T05:07:23;10.50;99.90
28654;DHT22;24320;56.980;24.336;2022-09-16T05:09:50;11.20;99.90
28654;DHT22;24320;56.980;24.336;2022-09-16T05:12:17;11.90;99.90
28654;DHT22;24320;56.980;24.336;2022-09-16T05:14:44;12.50;99.90
28654;DHT22;24320;56.980;24.336;2022-09-16T05:17:11;12.70;99.90
28654;DHT22;24320;56.980;24.336;2022-09-16T05:19:58;12.90;99.90
28654;DHT22;24320;56.980;24.336;2022-09-16T05:22:25;13.20;99.90
28654;DHT22;24320;56.980;24.336;2022-09-16T05:24:52;13.40;99.90
28654;DHT22;24320;56.980;24.336;2022-09-16T05:27:19;13.50;99.90
28654;DHT22;24320;56.980;24.336;2022-09-16T05:29:47;13.50;99.90
28654;DHT22;24320;56.980;24.336;2022-09-16T05:32:14;13.70;99.90
28654;DHT22;24320;56.980;24.336;2022-09-16T05:34:41;14.10;99.90
28654;DHT22;24320;56.980;24.336;2022-09-16T05:37:08;14.50;99.90
28654;DHT22;24320;56.980;24.336;2022-09-16T05:39:35;14.60;99.90
28654;DHT22;24320;56.980;24.336;2022-09-16T05:42:02;14.30;99.90
28654;DHT22;24320;56.980;24.336;2022-09-16T05:44:30;14.00;99.90
28654;DHT22;24320;56.980;24.336;2022-09-16T05:46:57;13.70;99.90
28654;DHT22;24320;56.980;24.336;2022-09-16T05:49:24;13.40;99.90
28654;DHT22;24320;56.980;24.336;2022-09-16T05:51:52;13.20;99.90
28654;DHT22;24320;56.980;24.336;2022-09-16T05:54:20;13.00;99.90
28654;DHT22;24320;56.980;24.336;2022-09-16T05:56:49;12.90;99.90
28654;DHT22;24320;56.980;24.336;2022-09-16T05:59:17;12.80;99.90
28654;DHT22;24320;56.980;24.336;2022-09-16T06:01:44;12.90;99.90
28654;DHT22;24320;56.980;24.336;2022-09-16T06:04:13;12.90;99.90
28654;DHT22;24320;56.980;24.336;2022-09-16T06:06:42;13.10;99.90
28654;DHT22;24320;56.980;24.336;2022-09-16T06:09:18;13.40;99.90
28654;DHT22;24320;56.980;24.336;2022-09-16T06:11:46;13.80;99.90
28654;DHT22;24320;56.980;24.336;2022-09-16T06:14:15;14.00;99.90
28654;DHT22;24320;56.980;24.336;2022-09-16T06:16:42;14.10;99.90
28654;DHT22;24320;56.980;24.336;2022-09-16T06:19:12;14.30;99.90
28654;DHT22;24320;56.980;24.336;2022-09-16T06:21:40;14.50;99.90
28654;DHT22;24320;56.980;24.336;2022-09-16T06:24:10;14.60;99.90
28654;DHT22;24320;56.980;24.336;2022-09-16T06:26:39;14.40;99.90
28654;DHT22;24320;56.980;24.336;2022-09-16T06:29:07;14.30;99.90
28654;DHT22;24320;56.980;24.336;2022-09-16T06:31:35;14.60;99.90
28654;DHT22;24320;56.980;24.336;2022-09-16T06:34:02;15.30;99.90
28654;DHT22;24320;56.980;24.336;2022-09-16T06:36:32;15.60;99.90
28654;DHT22;24320;56.980;24.336;2022-09-16T06:39:00;15.50;99.90
28654;DHT22;24320;56.980;24.336;2022-09-16T06:41:27;15.20;99.90
28654;DHT22;24320;56.980;24.336;2022-09-16T06:43:54;14.90;99.90
28654;DHT22;24320;56.980;24.336;2022-09-16T06:46:23;14.80;99.90
28654;DHT22;24320;56.980;24.336;2022-09-16T06:48:52;15.10;99.90
28654;DHT22;24320;56.980;24.336;2022-09-16T06:51:21;15.90;99.90
28654;DHT22;24320;56.980;24.336;2022-09-16T06:53:49;16.50;99.90
28654;DHT22;24320;56.980;24.336;2022-09-16T06:56:19;16.60;99.90
28654;DHT22;24320;56.980;24.336;2022-09-16T06:58:48;16.30;99.90
28654;DHT22;24320;56.980;24.336;2022-09-16T07:01:18;15.70;99.90
28654;DHT22;24320;56.980;24.336;2022-09-16T07:03:47;15.00;99.90
28654;DHT22;24320;56.980;24.336;2022-09-16T07:06:16;14.50;99.90
28654;DHT22;24320;56.980;24.336;2022-09-16T07:08:44;14.10;99.90
28654;DHT22;24320;56.980;24.336;2022-09-16T07:11:13;13.90;99.90
28654;DHT22;24320;56.980;24.336;2022-09-16T07:13:41;13.60;99.90
28654;DHT22;24320;56.980;24.336;2022-09-16T07:16:11;13.50;99.90
28654;DHT22;24320;56.980;24.336;2022-09-16T07:18:40;13.70;99.90
28654;DHT22;24320;56.980;24.336;2022-09-16T07:21:15;14.20;99.90
28654;DHT22;24320;56.980;24.336;2022-09-16T07:23:43;14.80;99.90
28654;DHT22;24320;56.980;24.336;2022-09-16T07:26:13;15.20;99.90
28654;DHT22;24320;56.980;24.336;2022-09-16T07:28:41;15.70;99.90
28654;DHT22;24320;56.980;24.336;2022-09-16T07:31:11;16.20;99.90
28654;DHT22;24320;56.980;24.336;2022-09-16T07:33:44;16.80;99.90
28654;DHT22;24320;56.980;24.336;2022-09-16T07:36:13;17.20;99.90
28654;DHT22;24320;56.980;24.336;2022-09-16T07:38:40;17.40;99.90
28654;DHT22;24320;56.980;24.336;2022-09-16T07:41:13;17.60;99.90
28654;DHT22;24320;56.980;24.336;2022-09-16T07:43:41;17.80;99.90
28654;DHT22;24320;56.980;24.336;2022-09-16T07:46:10;17.70;99.90
28654;DHT22;24320;56.980;24.336;2022-09-16T07:48:37;17.60;99.90
28654;DHT22;24320;56.980;24.336;2022-09-16T07:51:06;17.40;99.90
28654;DHT22;24320;56.980;24.336;2022-09-16T07:53:34;17.30;99.90
28654;DHT22;24320;56.980;24.336;2022-09-16T07:58:32;17.00;99.90
28654;DHT22;24320;56.980;24.336;2022-09-16T08:00:59;17.10;99.90
28654;DHT22;24320;56.980;24.336;2022-09-16T08:03:34;17.10;99.90
28654;DHT22;24320;56.980;24.336;2022-09-16T08:06:10;17.10;99.90
28654;DHT22;24320;56.980;24.336;2022-09-16T08:08:38;17.10;99.90
28654;DHT22;24320;56.980;24.336;2022-09-16T08:11:06;17.00;99.90
28654;DHT22;24320;56.980;24.336;2022-09-16T08:13:35;16.90;99.90
28654;DHT22;24320;56.980;24.336;2022-09-16T08:16:06;16.60;99.90
28654;DHT22;24320;56.980;24.336;2022-09-16T08:18:33;16.60;99.90
28654;DHT22;24320;56.980;24.336;2022-09-16T08:21:08;16.60;99.90
28654;DHT22;24320;56.980;24.336;2022-09-16T08:23:36;16.50;99.90
28654;DHT22;24320;56.980;24.336;2022-09-16T08:26:04;16.60;99.90
28654;DHT22;24320;56.980;24.336;2022-09-16T08:28:31;16.80;99.90
28654;DHT22;24320;56.980;24.336;2022-09-16T08:31:17;17.00;99.90
28654;DHT22;24320;56.980;24.336;2022-09-16T08:33:45;17.10;99.90
28654;DHT22;24320;56.980;24.336;2022-09-16T08:36:21;17.30;99.90
28654;DHT22;24320;56.980;24.336;2022-09-16T08:38:54;17.40;99.90
28654;DHT22;24320;56.980;24.336;2022-09-16T08:41:44;17.30;99.90
28654;DHT22;24320;56.980;24.336;2022-09-16T08:48:06;17.10;99.90
28654;DHT22;24320;56.980;24.336;2022-09-16T08:50:33;17.20;99.90
28654;DHT22;24320;56.980;24.336;2022-09-16T08:53:10;17.10;99.90
28654;DHT22;24320;56.980;24.336;2022-09-16T08:55:41;16.90;99.90
28654;DHT22;24320;56.980;24.336;2022-09-16T08:58:16;16.70;99.90
28654;DHT22;24320;56.980;24.336;2022-09-16T09:00:47;16.60;99.90
28654;DHT22;24320;56.980;24.336;2022-09-16T09:05:58;16.40;99.90
28654;DHT22;24320;56.980;24.336;2022-09-16T09:13:49;15.90;99.90
28654;DHT22;24320;56.980;24.336;2022-09-16T09:28:43;16.70;99.90
28654;DHT22;24320;56.980;24.336;2022-09-16T09:34:21;16.90;99.90
28654;DHT22;24320;56.980;24.336;2022-09-16T09:42:15;16.90;99.90
28654;DHT22;24320;56.980;24.336;2022-09-16T09:44:47;16.70;99.90
28654;DHT22;24320;56.980;24.336;2022-09-16T09:50:22;17.20;99.90
28654;DHT22;24320;56.980;24.336;2022-09-16T09:55:28;17.30;99.90
28654;DHT22;24320;56.980;24.336;2022-09-16T10:00:47;16.70;99.90
28654;DHT22;24320;56.980;24.336;2022-09-16T10:03:16;16.50;99.90
28654;DHT22;24320;56.980;24.336;2022-09-16T10:05:46;16.30;99.90
28654;DHT22;24320;56.980;24.336;2022-09-16T10:11:19;16.10;99.90
28654;DHT22;24320;56.980;24.336;2022-09-16T10:13:52;16.60;99.90
28654;DHT22;24320;56.980;24.336;2022-09-16T10:16:40;17.00;99.90
28654;DHT22;24320;56.980;24.336;2022-09-16T10:19:20;17.10;99.90
28654;DHT22;24320;56.980;24.336;2022-09-16T10:21:53;17.10;99.90
28654;DHT22;24320;56.980;24.336;2022-09-16T10:26:55;17.40;99.90
28654;DHT22;24320;56.980;24.336;2022-09-16T10:29:22;17.40;99.90
28654;DHT22;24320;56.980;24.336;2022-09-16T10:31:49;17.30;99.90
28654;DHT22;24320;56.980;24.336;2022-09-16T10:34:35;17.30;99.90
28654;DHT22;24320;56.980;24.336;2022-09-16T10:37:16;17.30;99.90
28654;DHT22;24320;56.980;24.336;2022-09-16T10:39:50;17.20;99.90
28654;DHT22;24320;56.980;24.336;2022-09-16T10:42:26;17.10;99.90
28654;DHT22;24320;56.980;24.336;2022-09-16T10:45:00;17.30;99.90
28654;DHT22;24320;56.980;24.336;2022-09-16T10:47:31;17.70;99.90
28654;DHT22;24320;56.980;24.336;2022-09-16T10:50:03;17.80;99.90
28654;DHT22;24320;56.980;24.336;2022-09-16T10:52:41;18.00;99.90
28654;DHT22;24320;56.980;24.336;2022-09-16T10:58:16;18.30;99.90
28654;DHT22;24320;56.980;24.336;2022-09-16T11:00:48;18.20;99.90
28654;DHT22;24320;56.980;24.336;2022-09-16T11:15:57;17.30;99.90
28654;DHT22;24320;56.980;24.336;2022-09-16T11:29:01;16.50;99.90
28654;DHT22;24320;56.980;24.336;2022-09-16T11:42:34;17.00;99.90
28654;DHT22;24320;56.980;24.336;2022-09-16T11:54:23;16.40;99.90
28654;DHT22;24320;56.980;24.336;2022-09-16T11:56:55;16.20;99.90
28654;DHT22;24320;56.980;24.336;2022-09-16T11:59:39;16.10;99.90
28654;DHT22;24320;56.980;24.336;2022-09-16T12:02:27;16.10;99.90
28654;DHT22;24320;56.980;24.336;2022-09-16T12:05:22;16.00;99.90
28654;DHT22;24320;56.980;24.336;2022-09-16T12:13:48;15.60;99.90
28654;DHT22;24320;56.980;24.336;2022-09-16T12:16:24;15.70;99.90
28654;DHT22;24320;56.980;24.336;2022-09-16T12:19:00;15.80;99.90
28654;DHT22;24320;56.980;24.336;2022-09-16T12:21:35;15.90;99.90
28654;DHT22;24320;56.980;24.336;2022-09-16T12:26:40;16.30;99.90
28654;DHT22;24320;56.980;24.336;2022-09-16T12:32:09;16.60;99.90
28654;DHT22;24320;56.980;24.336;2022-09-16T12:34:55;16.70;99.90
28654;DHT22;24320;56.980;24.336;2022-09-16T12:37:47;16.70;99.90
28654;DHT22;24320;56.980;24.336;2022-09-16T12:40:27;16.70;99.90
28654;DHT22;24320;56.980;24.336;2022-09-16T12:43:20;16.40;99.90
28654;DHT22;24320;56.980;24.336;2022-09-16T12:46:01;16.20;99.90
28654;DHT22;24320;56.980;24.336;2022-09-16T13:02:51;15.80;99.90
28654;DHT22;24320;56.980;24.336;2022-09-16T13:08:20;15.70;99.90
28654;DHT22;24320;56.980;24.336;2022-09-16T13:11:03;15.50;99.90
28654;DHT22;24320;56.980;24.336;2022-09-16T13:13:57;15.50;99.90
28654;DHT22;24320;56.980;24.336;2022-09-16T13:16:35;15.40;99.90
28654;DHT22;24320;56.980;24.336;2022-09-16T13:21:49;15.30;99.90
28654;DHT22;24320;56.980;24.336;2022-09-16T13:24:26;15.30;99.90
28654;DHT22;24320;56.980;24.336;2022-09-16T13:26:54;15.20;99.90
28654;DHT22;24320;56.980;24.336;2022-09-16T13:29:39;15.20;99.90
28654;DHT22;24320;56.980;24.336;2022-09-16T13:32:36;15.20;99.90
28654;DHT22;24320;56.980;24.336;2022-09-16T13:35:40;15.10;99.90
28654;DHT22;24320;56.980;24.336;2022-09-16T13:40:55;14.70;99.90
28654;DHT22;24320;56.980;24.336;2022-09-16T13:43:34;14.20;99.90
28654;DHT22;24320;56.980;24.336;2022-09-16T13:46:12;13.50;99.90
28654;DHT22;24320;56.980;24.336;2022-09-16T13:48:46;13.00;99.90
28654;DHT22;24320;56.980;24.336;2022-09-16T13:51:19;12.60;99.90
28654;DHT22;24320;56.980;24.336;2022-09-16T13:53:49;12.40;99.90
28654;DHT22;24320;56.980;24.336;2022-09-16T14:02:20;12.10;99.90
28654;DHT22;24320;56.980;24.336;2022-09-16T14:08:09;12.10;99.90
28654;DHT22;24320;56.980;24.336;2022-09-16T14:10:49;12.20;99.90
28654;DHT22;24320;56.980;24.336;2022-09-16T14:13:21;12.30;99.90
28654;DHT22;24320;56.980;24.336;2022-09-16T14:15:55;12.70;99.90
28654;DHT22;24320;56.980;24.336;2022-09-16T14:18:25;13.00;99.90
28654;DHT22;24320;56.980;24.336;2022-09-16T14:21:01;13.30;99.90
28654;DHT22;24320;56.980;24.336;2022-09-16T14:23:29;13.60;99.90
28654;DHT22;24320;56.980;24.336;2022-09-16T14:26:09;13.70;99.90
28654;DHT22;24320;56.980;24.336;2022-09-16T14:28:36;13.80;99.90
28654;DHT22;24320;56.980;24.336;2022-09-16T14:31:28;13.70;99.90
28654;DHT22;24320;56.980;24.336;2022-09-16T14:33:56;13.60;99.90
28654;DHT22;24320;56.980;24.336;2022-09-16T14:36:36;13.50;99.90
28654;DHT22;24320;56.980;24.336;2022-09-16T14:41:39;13.40;99.90
28654;DHT22;24320;56.980;24.336;2022-09-16T14:46:53;13.40;99.90
28654;DHT22;24320;56.980;24.336;2022-09-16T14:49:36;13.30;99.90
28654;DHT22;24320;56.980;24.336;2022-09-16T14:52:04;13.20;99.90
28654;DHT22;24320;56.980;24.336;2022-09-16T14:54:44;13.10;99.90
28654;DHT22;24320;56.980;24.336;2022-09-16T14:57:29;13.00;99.90
28654;DHT22;24320;56.980;24.336;2022-09-16T15:00:02;12.90;99.90
28654;DHT22;24320;56.980;24.336;2022-09-16T15:02:43;12.80;99.90
28654;DHT22;24320;56.980;24.336;2022-09-16T15:07:43;12.80;99.90
28654;DHT22;24320;56.980;24.336;2022-09-16T15:10:30;12.70;99.90
28654;DHT22;24320;56.980;24.336;2022-09-16T15:13:19;12.70;99.90
28654;DHT22;24320;56.980;24.336;2022-09-16T15:15:51;12.70;99.90
28654;DHT22;24320;56.980;24.336;2022-09-16T15:18:30;12.70;99.90
28654;DHT22;24320;56.980;24.336;2022-09-16T15:21:11;12.70;99.90
28654;DHT22;24320;56.980;24.336;2022-09-16T15:23:46;12.70;99.90
28654;DHT22;24320;56.980;24.336;2022-09-16T15:28:57;12.80;99.90
28654;DHT22;24320;56.980;24.336;2022-09-16T15:31:28;12.80;99.90
28654;DHT22;24320;56.980;24.336;2022-09-16T15:33:57;12.80;99.90
28654;DHT22;24320;56.980;24.336;2022-09-16T15:36:36;12.80;99.90
28654;DHT22;24320;56.980;24.336;2022-09-16T15:39:04;12.80;99.90
28654;DHT22;24320;56.980;24.336;2022-09-16T15:41:32;12.80;99.90
28654;DHT22;24320;56.980;24.336;2022-09-16T15:43:59;12.80;99.90
28654;DHT22;24320;56.980;24.336;2022-09-16T15:46:26;12.90;99.90
28654;DHT22;24320;56.980;24.336;2022-09-16T15:48:55;12.90;99.90
28654;DHT22;24320;56.980;24.336;2022-09-16T15:51:33;12.80;99.90
28654;DHT22;24320;56.980;24.336;2022-09-16T15:54:16;12.80;99.90
28654;DHT22;24320;56.980;24.336;2022-09-16T15:57:05;12.80;99.90
28654;DHT22;24320;56.980;24.336;2022-09-16T16:00:05;12.80;99.90
28654;DHT22;24320;56.980;24.336;2022-09-16T16:02:47;12.70;99.90
28654;DHT22;24320;56.980;24.336;2022-09-16T16:05:24;12.60;99.90
28654;DHT22;24320;56.980;24.336;2022-09-16T16:08:02;12.60;99.90
28654;DHT22;24320;56.980;24.336;2022-09-16T16:10:35;12.60;99.90
28654;DHT22;24320;56.980;24.336;2022-09-16T16:13:02;12.50;99.90
28654;DHT22;24320;56.980;24.336;2022-09-16T16:15:34;12.50;99.90
28654;DHT22;24320;56.980;24.336;2022-09-16T16:18:04;12.40;99.90
28654;DHT22;24320;56.980;24.336;2022-09-16T16:20:32;12.50;99.90
28654;DHT22;24320;56.980;24.336;2022-09-16T16:23:01;12.40;99.90
28654;DHT22;24320;56.980;24.336;2022-09-16T16:25:28;12.40;99.90
28654;DHT22;24320;56.980;24.336;2022-09-16T16:27:56;12.40;99.90
28654;DHT22;24320;56.980;24.336;2022-09-16T16:30:23;12.40;99.90
28654;DHT22;24320;56.980;24.336;2022-09-16T16:32:50;12.30;99.90
28654;DHT22;24320;56.980;24.336;2022-09-16T16:35:17;12.30;99.90
28654;DHT22;24320;56.980;24.336;2022-09-16T16:37:44;12.20;99.90
28654;DHT22;24320;56.980;24.336;2022-09-16T16:40:13;12.20;99.90
28654;DHT22;24320;56.980;24.336;2022-09-16T16:42:41;12.10;99.90
28654;DHT22;24320;56.980;24.336;2022-09-16T16:45:12;12.10;99.90
28654;DHT22;24320;56.980;24.336;2022-09-16T16:47:40;12.10;99.90
28654;DHT22;24320;56.980;24.336;2022-09-16T16:50:09;12.00;99.90
28654;DHT22;24320;56.980;24.336;2022-09-16T16:52:36;12.00;99.90
28654;DHT22;24320;56.980;24.336;2022-09-16T16:55:04;12.00;99.90
28654;DHT22;24320;56.980;24.336;2022-09-16T17:00:11;12.00;99.90
28654;DHT22;24320;56.980;24.336;2022-09-16T17:02:39;12.00;99.90
28654;DHT22;24320;56.980;24.336;2022-09-16T17:05:06;12.00;99.90
28654;DHT22;24320;56.980;24.336;2022-09-16T17:07:33;11.90;99.90
28654;DHT22;24320;56.980;24.336;2022-09-16T17:10:00;11.90;99.90
28654;DHT22;24320;56.980;24.336;2022-09-16T17:12:27;11.90;99.90
28654;DHT22;24320;56.980;24.336;2022-09-16T17:14:54;11.90;99.90
28654;DHT22;24320;56.980;24.336;2022-09-16T17:17:21;11.90;99.90
28654;DHT22;24320;56.980;24.336;2022-09-16T17:19:56;11.90;99.90
28654;DHT22;24320;56.980;24.336;2022-09-16T17:22:23;11.90;99.90
28654;DHT22;24320;56.980;24.336;2022-09-16T17:24:50;11.90;99.90
28654;DHT22;24320;56.980;24.336;2022-09-16T17:27:17;11.90;99.90
28654;DHT22;24320;56.980;24.336;2022-09-16T17:29:46;11.90;99.90
28654;DHT22;24320;56.980;24.336;2022-09-16T17:32:13;11.90;99.90
28654;DHT22;24320;56.980;24.336;2022-09-16T17:34:40;11.80;99.90
28654;DHT22;24320;56.980;24.336;2022-09-16T17:37:09;11.80;99.90
28654;DHT22;24320;56.980;24.336;2022-09-16T17:39:36;11.90;99.90
28654;DHT22;24320;56.980;24.336;2022-09-16T17:42:04;11.90;99.90
28654;DHT22;24320;56.980;24.336;2022-09-16T17:44:31;11.90;99.90
28654;DHT22;24320;56.980;24.336;2022-09-16T17:46:58;11.80;99.90
28654;DHT22;24320;56.980;24.336;2022-09-16T17:49:25;11.90;99.90
28654;DHT22;24320;56.980;24.336;2022-09-16T17:51:52;11.90;99.90
28654;DHT22;24320;56.980;24.336;2022-09-16T17:54:20;11.90;99.90
28654;DHT22;24320;56.980;24.336;2022-09-16T17:56:48;11.90;99.90
28654;DHT22;24320;56.980;24.336;2022-09-16T17:59:17;11.90;99.90
28654;DHT22;24320;56.980;24.336;2022-09-16T18:01:44;11.90;99.90
28654;DHT22;24320;56.980;24.336;2022-09-16T18:07:13;11.90;99.90
28654;DHT22;24320;56.980;24.336;2022-09-16T18:12:18;11.80;99.90
28654;DHT22;24320;56.980;24.336;2022-09-16T18:14:49;11.80;99.90
28654;DHT22;24320;56.980;24.336;2022-09-16T18:17:18;11.80;99.90
28654;DHT22;24320;56.980;24.336;2022-09-16T18:19:48;11.80;99.90
28654;DHT22;24320;56.980;24.336;2022-09-16T18:22:18;11.80;99.90
28654;DHT22;24320;56.980;24.336;2022-09-16T18:24:47;11.80;99.90
28654;DHT22;24320;56.980;24.336;2022-09-16T18:27:18;11.70;99.90
28654;DHT22;24320;56.980;24.336;2022-09-16T18:29:47;11.70;99.90
28654;DHT22;24320;56.980;24.336;2022-09-16T18:32:14;11.70;99.90
28654;DHT22;24320;56.980;24.336;2022-09-16T18:34:41;11.70;99.90
28654;DHT22;24320;56.980;24.336;2022-09-16T18:37:08;11.70;99.90
28654;DHT22;24320;56.980;24.336;2022-09-16T18:39:35;11.60;99.90
28654;DHT22;24320;56.980;24.336;2022-09-16T18:42:02;11.60;99.90
28654;DHT22;24320;56.980;24.336;2022-09-16T18:44:29;11.60;99.90
28654;DHT22;24320;56.980;24.336;2022-09-16T18:46:56;11.60;99.90
28654;DHT22;24320;56.980;24.336;2022-09-16T18:49:23;11.60;99.90
28654;DHT22;24320;56.980;24.336;2022-09-16T18:51:52;11.60;99.90
28654;DHT22;24320;56.980;24.336;2022-09-16T18:54:24;11.60;99.90
28654;DHT22;24320;56.980;24.336;2022-09-16T18:56:58;11.50;99.90
28654;DHT22;24320;56.980;24.336;2022-09-16T18:59:30;11.60;99.90
28654;DHT22;24320;56.980;24.336;2022-09-16T19:01:59;11.50;99.90
28654;DHT22;24320;56.980;24.336;2022-09-16T19:04:30;11.50;99.90
28654;DHT22;24320;56.980;24.336;2022-09-16T19:07:01;11.50;99.90
28654;DHT22;24320;56.980;24.336;2022-09-16T19:09:36;11.40;99.90
28654;DHT22;24320;56.980;24.336;2022-09-16T19:12:09;11.40;99.90
28654;DHT22;24320;56.980;24.336;2022-09-16T19:14:37;11.40;99.90
28654;DHT22;24320;56.980;24.336;2022-09-16T19:17:04;11.40;99.90